Time;durP1;ratioP1;P1;durP2;ratioP2;P2;SDS_P1;SDS_P2;PMS_P1;PMS_P2;Temp;Humidity;BMP_temperature;BMP_pressure;BME280_temperature;BME280_humidity;BME280_pressure;Samples;Min_cycle;Max_cycle;Signal;HPM_P1;HPM_P2
2021/03/22 00:01:29;;;;;;;0.50;0.50;;;3.70;99.90;;;;;;4414798;32;20522;-57
2021/03/22 00:03:55;;;;;;;0.30;0.30;;;3.60;99.90;;;;;;4414307;32;20116;-55
2021/03/22 00:06:21;;;;;;;0.30;0.30;;;3.50;99.90;;;;;;4413298;32;20077;-57
2021/03/22 00:08:46;;;;;;;0.40;0.40;;;3.40;99.90;;;;;;4414515;32;20053;-54
2021/03/22 00:11:12;;;;;;;0.30;0.30;;;3.40;99.90;;;;;;4414052;32;20082;-52
2021/03/22 00:13:37;;;;;;;0.32;0.32;;;3.60;99.90;;;;;;4414832;32;20065;-54
2021/03/22 00:16:07;;;;;;;0.35;0.35;;;3.80;99.90;;;;;;4414416;32;20624;-57
2021/03/22 00:18:36;;;;;;;0.40;0.40;;;4.00;99.90;;;;;;4399912;32;20245;-56
2021/03/22 00:21:04;;;;;;;0.30;0.30;;;4.10;99.90;;;;;;4399992;32;20108;-56
2021/03/22 00:23:29;;;;;;;20.23;1.25;;;4.10;99.90;;;;;;4400858;32;20049;-54
2021/03/22 00:25:55;;;;;;;0.50;0.50;;;4.10;99.90;;;;;;4414069;32;20393;-55
2021/03/22 00:28:23;;;;;;;0.30;0.30;;;4.10;99.90;;;;;;4399758;32;20053;-56
2021/03/22 00:30:49;;;;;;;0.30;0.30;;;4.00;99.90;;;;;;4387564;32;20454;-56
2021/03/22 00:33:16;;;;;;;2.30;0.70;;;4.00;99.90;;;;;;4388331;32;20120;-52
2021/03/22 00:35:42;;;;;;;0.40;0.40;;;4.00;99.90;;;;;;4414244;32;20116;-52
2021/03/22 00:38:09;;;;;;;0.60;0.60;;;4.00;99.90;;;;;;4386727;32;20502;-56
2021/03/22 00:40:37;;;;;;;0.30;0.30;;;4.10;99.90;;;;;;4386841;32;20078;-56
2021/03/22 00:43:03;;;;;;;0.40;0.40;;;4.10;99.90;;;;;;4388505;32;20065;-56
2021/03/22 00:45:29;;;;;;;0.30;0.30;;;4.00;99.90;;;;;;4388165;32;20114;-53
2021/03/22 00:47:55;;;;;;;0.30;0.30;;;3.90;99.90;;;;;;4413835;32;20049;-57
2021/03/22 00:50:24;;;;;;;0.40;0.40;;;3.90;99.90;;;;;;4414206;32;20061;-57
2021/03/22 00:52:50;;;;;;;0.30;0.30;;;3.90;99.90;;;;;;4388114;32;20499;-56
2021/03/22 00:55:16;;;;;;;0.82;0.65;;;4.00;99.90;;;;;;4414170;32;20081;-56
2021/03/22 00:57:41;;;;;;;0.30;0.30;;;3.90;99.90;;;;;;4399533;32;20069;-56
2021/03/22 01:00:08;;;;;;;0.30;0.30;;;3.80;99.90;;;;;;4413580;32;20078;-57
2021/03/22 01:02:34;;;;;;;0.55;0.55;;;3.80;99.90;;;;;;4401776;32;20506;-55
2021/03/22 01:05:00;;;;;;;1.27;0.80;;;3.80;99.90;;;;;;4415048;32;20078;-55
2021/03/22 01:07:25;;;;;;;0.73;0.73;;;3.60;99.90;;;;;;4413497;32;20066;-54
2021/03/22 01:09:51;;;;;;;0.37;0.37;;;3.70;99.90;;;;;;4414455;32;20085;-56
2021/03/22 01:12:16;;;;;;;0.30;0.30;;;3.60;99.90;;;;;;4413556;32;20515;-56
2021/03/22 01:14:42;;;;;;;0.30;0.30;;;3.60;99.90;;;;;;4414317;32;20085;-52
2021/03/22 01:17:07;;;;;;;0.40;0.40;;;3.50;99.90;;;;;;4413962;32;20061;-51
2021/03/22 01:19:33;;;;;;;0.80;0.80;;;3.40;99.90;;;;;;4400540;32;20514;-53
2021/03/22 01:22:00;;;;;;;0.37;0.37;;;3.40;99.90;;;;;;4414632;32;20070;-52
2021/03/22 01:24:28;;;;;;;0.57;0.57;;;3.40;99.90;;;;;;4401255;32;20202;-56
2021/03/22 01:26:58;;;;;;;0.45;0.45;;;3.40;99.90;;;;;;4388433;32;20578;-57
2021/03/22 01:29:27;;;;;;;0.60;0.60;;;3.40;99.90;;;;;;4399882;32;20419;-55
2021/03/22 01:31:57;;;;;;;0.30;0.30;;;3.40;99.90;;;;;;4399985;32;20113;-57
2021/03/22 01:34:23;;;;;;;0.30;0.30;;;3.40;99.90;;;;;;4414521;32;20073;-55
2021/03/22 01:36:48;;;;;;;0.30;0.30;;;3.40;99.90;;;;;;4401174;32;20065;-57
2021/03/22 01:39:24;;;;;;;0.57;0.57;;;3.50;99.90;;;;;;4414629;32;20531;-52
2021/03/22 01:41:55;;;;;;;1.40;0.80;;;3.40;99.90;;;;;;4400191;32;20577;-56
2021/03/22 01:44:27;;;;;;;3.35;1.45;;;3.40;99.90;;;;;;4412885;32;20069;-56
2021/03/22 01:46:56;;;;;;;0.30;0.30;;;3.30;99.90;;;;;;4400939;32;20113;-57
2021/03/22 01:49:26;;;;;;;0.60;0.60;;;3.30;99.90;;;;;;4400347;32;20257;-57
2021/03/22 01:51:53;;;;;;;0.30;0.30;;;3.40;99.90;;;;;;4400267;32;20518;-54
2021/03/22 01:54:19;;;;;;;0.40;0.40;;;3.40;99.90;;;;;;4399808;32;20073;-52
2021/03/22 01:56:52;;;;;;;0.35;0.35;;;3.30;99.90;;;;;;4399186;32;20062;-53
2021/03/22 01:59:26;;;;;;;0.40;0.40;;;3.40;99.90;;;;;;4400445;32;20078;-53
2021/03/22 02:01:55;;;;;;;0.30;0.30;;;3.40;99.90;;;;;;4413830;32;20115;-56
2021/03/22 02:04:20;;;;;;;0.30;0.30;;;3.40;99.90;;;;;;4399693;32;20066;-56
2021/03/22 02:06:47;;;;;;;0.62;0.62;;;3.40;99.90;;;;;;4400713;32;20069;-57
2021/03/22 02:09:13;;;;;;;0.30;0.30;;;3.40;99.90;;;;;;4413107;32;20121;-53
2021/03/22 02:11:38;;;;;;;1.62;1.17;;;3.40;99.90;;;;;;4399505;32;20062;-53
2021/03/22 02:14:07;;;;;;;1.77;0.65;;;3.40;99.90;;;;;;4412798;32;20073;-53
2021/03/22 02:17:00;;;;;;;0.35;0.35;;;3.50;99.90;;;;;;4400708;32;20499;-52
2021/03/22 02:20:02;;;;;;;0.40;0.40;;;3.50;99.90;;;;;;4402748;32;20073;-53
2021/03/22 02:23:01;;;;;;;0.30;0.30;;;3.30;99.90;;;;;;4405046;32;20269;-56
2021/03/22 02:25:52;;;;;;;2.47;1.25;;;3.40;99.90;;;;;;4391648;32;20064;-52
2021/03/22 02:28:57;;;;;;;0.20;0.20;;;3.40;99.90;;;;;;4390167;32;20153;-57
2021/03/22 02:31:37;;;;;;;0.40;0.40;;;3.30;99.90;;;;;;4393539;32;20090;-56
2021/03/22 02:34:28;;;;;;;0.40;0.40;;;3.40;99.90;;;;;;4399686;32;20066;-57
2021/03/22 02:37:06;;;;;;;0.40;0.40;;;3.50;99.90;;;;;;4401790;32;20065;-55
2021/03/22 02:39:37;;;;;;;0.60;0.60;;;3.50;99.90;;;;;;4412134;32;20117;-56
2021/03/22 02:42:06;;;;;;;;;;;3.50;99.90;;;;;;4400631;32;20519;-57
2021/03/22 02:44:35;;;;;;;7.40;0.93;;;3.40;99.90;;;;;;4399872;32;19960;-56
2021/03/22 02:47:04;;;;;;;0.52;0.52;;;3.40;99.90;;;;;;4400189;32;20117;-56
2021/03/22 02:49:34;;;;;;;0.30;0.30;;;3.40;99.90;;;;;;4413407;32;20066;-56
2021/03/22 02:52:08;;;;;;;0.40;0.40;;;3.40;99.90;;;;;;4399579;32;20447;-56
2021/03/22 02:54:59;;;;;;;0.30;0.30;;;3.40;99.90;;;;;;4397648;32;20062;-57
2021/03/22 02:57:49;;;;;;;0.60;0.60;;;3.50;99.90;;;;;;4396829;32;20466;-57
2021/03/22 03:00:26;;;;;;;0.30;0.30;;;3.40;99.90;;;;;;4385756;32;20074;-56
2021/03/22 03:02:55;;;;;;;25.58;1.05;;;3.30;99.90;;;;;;4386470;32;20083;-55
2021/03/22 03:05:24;;;;;;;0.30;0.30;;;3.40;99.90;;;;;;4387037;32;20062;-57
2021/03/22 03:07:50;;;;;;;1.50;0.93;;;3.40;99.90;;;;;;4386762;32;20062;-57
2021/03/22 03:10:18;;;;;;;0.45;0.45;;;3.40;99.90;;;;;;4399678;32;20127;-56
2021/03/22 03:12:44;;;;;;;0.80;0.70;;;3.30;99.90;;;;;;4375421;32;20125;-55
2021/03/22 03:15:12;;;;;;;0.70;0.70;;;3.30;99.90;;;;;;4400971;32;20506;-55
2021/03/22 03:17:38;;;;;;;0.30;0.30;;;3.30;99.90;;;;;;4386683;32;20066;-56
2021/03/22 03:20:08;;;;;;;0.32;0.32;;;3.30;99.90;;;;;;4400179;32;20453;-57
2021/03/22 03:22:33;;;;;;;24.47;0.83;;;3.30;99.90;;;;;;4400743;32;20085;-58
2021/03/22 03:24:59;;;;;;;0.40;0.40;;;3.20;99.90;;;;;;4400834;32;20432;-55
2021/03/22 03:27:25;;;;;;;0.85;0.73;;;3.20;99.90;;;;;;4399282;32;20053;-56
2021/03/22 03:29:50;;;;;;;0.30;0.30;;;3.20;99.90;;;;;;4399599;32;20046;-57
2021/03/22 03:32:19;;;;;;;0.43;0.43;;;3.20;99.90;;;;;;4387300;32;20082;-52
2021/03/22 03:34:45;;;;;;;0.40;0.40;;;3.10;99.90;;;;;;4387852;32;20086;-56
2021/03/22 03:37:11;;;;;;;6.12;2.58;;;3.10;99.90;;;;;;4387269;32;20058;-54
2021/03/22 03:39:37;;;;;;;1.58;1.48;;;3.10;99.90;;;;;;4386475;32;20062;-53
2021/03/22 03:42:04;;;;;;;0.30;0.30;;;3.10;99.90;;;;;;4400048;32;20074;-54
2021/03/22 03:44:30;;;;;;;0.30;0.30;;;3.00;99.90;;;;;;4400709;32;20122;-54
2021/03/22 03:46:56;;;;;;;0.35;0.35;;;3.00;99.90;;;;;;4386025;32;20053;-53
2021/03/22 03:49:21;;;;;;;0.37;0.37;;;3.00;99.90;;;;;;4400476;32;20125;-51
2021/03/22 03:51:47;;;;;;;0.88;0.88;;;3.00;99.90;;;;;;4399354;32;20397;-57
2021/03/22 03:54:12;;;;;;;1.35;0.75;;;3.00;99.90;;;;;;4399038;32;20496;-54
2021/03/22 03:56:38;;;;;;;2.60;0.88;;;2.90;99.90;;;;;;4413861;32;20058;-56
2021/03/22 03:59:05;;;;;;;0.95;0.95;;;2.90;99.90;;;;;;4401161;32;20078;-56
2021/03/22 04:01:32;;;;;;;0.40;0.40;;;2.90;99.90;;;;;;4388905;32;20411;-57
2021/03/22 04:03:57;;;;;;;11.15;1.08;;;2.80;99.90;;;;;;4389100;32;20061;-57
2021/03/22 04:06:26;;;;;;;2.95;0.93;;;2.70;99.90;;;;;;4415277;32;20587;-56
2021/03/22 04:08:55;;;;;;;0.30;0.30;;;2.70;99.90;;;;;;4388912;32;20069;-57
2021/03/22 04:11:25;;;;;;;0.70;0.55;;;2.70;99.90;;;;;;4401499;32;20058;-56
2021/03/22 04:13:52;;;;;;;0.30;0.30;;;2.70;99.90;;;;;;4388815;32;20058;-55
2021/03/22 04:16:18;;;;;;;0.60;0.60;;;2.70;99.90;;;;;;4387867;32;20073;-52
2021/03/22 04:18:43;;;;;;;6.60;1.55;;;2.60;99.90;;;;;;4415223;32;20481;-53
2021/03/22 04:21:14;;;;;;;7.32;2.70;;;2.60;99.90;;;;;;4401789;32;20082;-53
2021/03/22 04:23:42;;;;;;;5.78;1.65;;;2.50;99.90;;;;;;4414928;32;20053;-54
2021/03/22 04:26:08;;;;;;;2.55;1.42;;;2.50;99.90;;;;;;4387854;32;20089;-56
2021/03/22 04:28:34;;;;;;;0.43;0.43;;;2.40;99.90;;;;;;4401382;32;20467;-52
2021/03/22 04:31:00;;;;;;;0.52;0.52;;;2.40;99.90;;;;;;4401641;32;20078;-55
2021/03/22 04:33:26;;;;;;;3.08;1.00;;;2.60;99.90;;;;;;4400772;32;20063;-56
2021/03/22 04:35:52;;;;;;;0.40;0.40;;;2.50;99.90;;;;;;4401588;32;20061;-56
2021/03/22 04:38:18;;;;;;;0.68;0.68;;;2.50;99.90;;;;;;4415110;32;20120;-56
2021/03/22 04:40:44;;;;;;;0.80;0.80;;;2.40;99.90;;;;;;4413858;32;20090;-57
2021/03/22 04:43:10;;;;;;;0.98;0.98;;;2.40;99.90;;;;;;4400572;32;20061;-56
2021/03/22 04:45:36;;;;;;;0.73;0.73;;;2.40;99.90;;;;;;4400253;32;20061;-55
2021/03/22 04:48:01;;;;;;;0.57;0.57;;;2.50;99.90;;;;;;4414651;32;20065;-58
2021/03/22 04:50:28;;;;;;;0.50;0.50;;;2.40;99.90;;;;;;4415291;32;20065;-57
2021/03/22 04:52:54;;;;;;;0.50;0.50;;;2.40;99.90;;;;;;4401097;32;20070;-57
2021/03/22 04:55:21;;;;;;;49.58;1.05;;;2.40;99.90;;;;;;4401134;32;20068;-57
2021/03/22 04:57:47;;;;;;;2.25;1.55;;;2.40;99.90;;;;;;4387515;32;20420;-57
2021/03/22 05:00:21;;;;;;;0.52;0.52;;;2.40;99.90;;;;;;4401030;32;20117;-55
2021/03/22 05:02:46;;;;;;;0.90;0.82;;;2.40;99.90;;;;;;4401394;32;20050;-53
2021/03/22 05:05:12;;;;;;;0.75;0.75;;;2.40;99.90;;;;;;4414264;32;20164;-57
2021/03/22 05:07:38;;;;;;;0.43;0.43;;;2.40;99.90;;;;;;4400213;32;20120;-57
2021/03/22 05:10:06;;;;;;;0.30;0.30;;;2.30;99.90;;;;;;4414973;32;20118;-57
2021/03/22 05:12:32;;;;;;;1.05;1.00;;;2.40;99.90;;;;;;4402307;32;20062;-57
2021/03/22 05:14:57;;;;;;;0.30;0.30;;;2.30;99.90;;;;;;4415370;32;20085;-56
2021/03/22 05:17:23;;;;;;;0.45;0.45;;;2.30;99.90;;;;;;4414518;32;20078;-57
2021/03/22 05:19:49;;;;;;;0.82;0.75;;;2.30;99.90;;;;;;4415149;32;20132;-55
2021/03/22 05:22:14;;;;;;;0.77;0.75;;;2.30;99.90;;;;;;4403698;32;20050;-54
2021/03/22 05:24:40;;;;;;;0.30;0.30;;;2.30;99.90;;;;;;4398972;32;20061;-54
2021/03/22 05:27:06;;;;;;;3.78;1.65;;;2.40;99.90;;;;;;4410055;32;20101;-57
2021/03/22 05:29:31;;;;;;;1.30;1.02;;;2.50;99.90;;;;;;4413595;32;20082;-57
2021/03/22 05:31:57;;;;;;;0.40;0.40;;;2.50;99.90;;;;;;4397017;32;20057;-56
2021/03/22 05:34:23;;;;;;;0.35;0.35;;;2.60;99.90;;;;;;4412536;32;20125;-56
2021/03/22 05:36:50;;;;;;;3.37;1.58;;;2.50;99.90;;;;;;4414961;32;20070;-56
2021/03/22 05:39:16;;;;;;;0.55;0.55;;;2.60;99.90;;;;;;4414534;32;20066;-51
2021/03/22 05:42:04;;;;;;;0.95;0.88;;;2.60;99.90;;;;;;4413592;32;20074;-56
2021/03/22 05:47:18;;;;;;;0.40;0.40;;;2.50;99.90;;;;;;4413982;32;20181;-55
2021/03/22 05:50:06;;;;;;;0.32;0.32;;;2.50;99.90;;;;;;4414120;32;20065;-55
2021/03/22 05:52:40;;;;;;;3.17;1.55;;;2.60;99.90;;;;;;4412186;32;20408;-57
2021/03/22 05:55:27;;;;;;;0.60;0.60;;;2.60;99.90;;;;;;4411063;32;20161;-54
2021/03/22 05:58:23;;;;;;;2.33;1.80;;;2.70;99.90;;;;;;4401395;32;20057;-55
2021/03/22 06:01:28;;;;;;;0.82;0.82;;;2.70;99.90;;;;;;4412356;32;20065;-55
2021/03/22 06:04:01;;;;;;;0.93;0.93;;;2.70;99.90;;;;;;4381258;32;20120;-56
2021/03/22 06:06:38;;;;;;;0.40;0.40;;;2.80;99.90;;;;;;4423452;32;20124;-57
2021/03/22 06:09:27;;;;;;;1.02;0.95;;;2.80;99.90;;;;;;4423806;32;20494;-56
2021/03/22 06:11:59;;;;;;;23.15;1.08;;;2.90;99.90;;;;;;4389063;32;20231;-54
2021/03/22 06:15:04;;;;;;;0.80;0.80;;;2.90;99.90;;;;;;4398333;32;20061;-57
2021/03/22 06:17:49;;;;;;;1.20;0.88;;;2.90;99.90;;;;;;4375760;32;20197;-56
2021/03/22 06:20:21;;;;;;;0.52;0.52;;;3.00;99.90;;;;;;4406544;32;20230;-53
2021/03/22 06:22:47;;;;;;;0.60;0.57;;;3.00;99.90;;;;;;4398666;32;20069;-52
2021/03/22 06:25:21;;;;;;;2.35;1.10;;;3.10;99.90;;;;;;4391803;32;20086;-56
2021/03/22 06:27:54;;;;;;;0.45;0.45;;;3.20;99.90;;;;;;4381741;32;20661;-55
2021/03/22 06:30:22;;;;;;;0.40;0.40;;;3.30;99.90;;;;;;4398457;32;20168;-52
2021/03/22 06:32:51;;;;;;;0.40;0.40;;;3.40;99.90;;;;;;4366816;32;20081;-56
2021/03/22 06:35:30;;;;;;;0.40;0.40;;;3.40;99.90;;;;;;4393972;32;20055;-56
2021/03/22 06:37:55;;;;;;;1.75;1.12;;;3.50;99.90;;;;;;4390259;32;20074;-54
2021/03/22 06:40:27;;;;;;;0.40;0.40;;;3.60;99.90;;;;;;4422463;32;20172;-58
2021/03/22 06:43:11;;;;;;;0.52;0.52;;;3.70;99.90;;;;;;4416542;32;20074;-58
2021/03/22 06:45:43;;;;;;;0.75;0.75;;;3.70;99.90;;;;;;4401405;32;20057;-57
2021/03/22 06:48:15;;;;;;;1.08;1.02;;;3.80;99.90;;;;;;4395944;32;20069;-58
2021/03/22 06:50:41;;;;;;;0.30;0.30;;;3.80;99.90;;;;;;4390622;32;20089;-58
2021/03/22 06:53:08;;;;;;;0.30;0.30;;;3.80;99.90;;;;;;4407518;32;20077;-58
2021/03/22 06:55:39;;;;;;;0.32;0.32;;;3.80;99.90;;;;;;4403067;32;20070;-56
2021/03/22 06:58:05;;;;;;;0.85;0.60;;;3.90;99.90;;;;;;4389496;32;20078;-57
2021/03/22 07:00:35;;;;;;;0.98;0.80;;;3.90;99.90;;;;;;4396139;32;20070;-58
2021/03/22 07:03:04;;;;;;;0.47;0.47;;;3.90;99.90;;;;;;4391204;32;20353;-57
2021/03/22 07:05:38;;;;;;;5.20;2.05;;;3.90;99.90;;;;;;4393246;32;20090;-57
2021/03/22 07:08:37;;;;;;;5.10;2.15;;;3.90;99.90;;;;;;4402840;32;20193;-57
2021/03/22 07:11:07;;;;;;;3.80;1.58;;;4.00;99.90;;;;;;4395878;32;20045;-56
2021/03/22 07:13:34;;;;;;;1.17;1.02;;;4.10;99.90;;;;;;4407587;32;20069;-58
2021/03/22 07:16:20;;;;;;;0.75;0.75;;;4.20;99.90;;;;;;4409775;32;20057;-56
2021/03/22 07:19:06;;;;;;;1.98;1.67;;;4.30;99.90;;;;;;4405988;32;20093;-58
2021/03/22 07:21:33;;;;;;;1.55;0.80;;;4.30;99.90;;;;;;4389593;32;20436;-57
2021/03/22 07:24:11;;;;;;;0.68;0.68;;;4.30;99.90;;;;;;4398234;32;20098;-53
2021/03/22 07:26:51;;;;;;;0.57;0.57;;;4.30;99.90;;;;;;4407962;32;20125;-58
2021/03/22 07:29:46;;;;;;;1.33;0.57;;;4.30;99.90;;;;;;4413217;32;20073;-57
2021/03/22 07:32:35;;;;;;;0.57;0.57;;;4.30;99.90;;;;;;4405247;32;20058;-56
2021/03/22 07:35:35;;;;;;;0.80;0.80;;;4.50;99.90;;;;;;4385380;32;20065;-58
2021/03/22 07:38:37;;;;;;;0.45;0.45;;;4.70;99.90;;;;;;4384919;32;20648;-58
2021/03/22 07:41:33;;;;;;;0.50;0.50;;;4.90;99.90;;;;;;4398524;32;20082;-58
2021/03/22 07:44:24;;;;;;;6.32;1.30;;;5.10;99.90;;;;;;4381687;32;20058;-58
2021/03/22 07:47:05;;;;;;;0.75;0.75;;;5.30;99.90;;;;;;4398062;32;20438;-58
2021/03/22 07:49:36;;;;;;;3.55;1.35;;;5.40;99.90;;;;;;4409471;32;20124;-56
2021/03/22 07:52:41;;;;;;;0.37;0.37;;;5.70;99.90;;;;;;4404907;32;20515;-58
2021/03/22 07:55:25;;;;;;;0.90;0.73;;;5.70;99.90;;;;;;4395190;32;20066;-58
2021/03/22 07:58:04;;;;;;;6.62;0.60;;;5.70;99.90;;;;;;4396997;32;20081;-58
2021/03/22 08:00:40;;;;;;;0.50;0.50;;;5.90;99.90;;;;;;4414522;32;20074;-59
2021/03/22 08:03:28;;;;;;;0.37;0.37;;;6.00;99.90;;;;;;4409785;32;20058;-58
2021/03/22 08:06:33;;;;;;;0.73;0.73;;;6.00;99.90;;;;;;4392802;32;20323;-57
2021/03/22 08:09:01;;;;;;;1.08;0.45;;;6.10;99.90;;;;;;4378264;32;20105;-58
2021/03/22 08:11:40;;;;;;;0.75;0.57;;;6.20;99.90;;;;;;4409241;32;20054;-58
2021/03/22 08:14:15;;;;;;;0.40;0.40;;;6.20;99.90;;;;;;4388319;32;20125;-54
2021/03/22 08:16:56;;;;;;;0.20;0.20;;;6.20;99.90;;;;;;4386762;32;20061;-56
2021/03/22 08:19:26;;;;;;;;;;;6.30;99.90;;;;;;4387897;32;20081;-57
2021/03/22 08:22:08;;;;;;;1.85;1.50;;;6.40;99.90;;;;;;4416091;32;19956;-57
2021/03/22 08:24:47;;;;;;;1.17;0.88;;;6.50;99.90;;;;;;4397470;32;20463;-57
2021/03/22 08:27:17;;;;;;;0.45;0.45;;;6.60;99.90;;;;;;4399216;32;20522;-58
2021/03/22 08:30:11;;;;;;;0.47;0.47;;;6.60;99.90;;;;;;4399309;32;20046;-55
2021/03/22 08:33:04;;;;;;;21.12;2.85;;;6.80;99.90;;;;;;4417891;27;20363;-72
2021/03/22 08:35:38;;;;;;;0.30;0.30;;;7.00;99.90;;;;;;4411379;32;20074;-72
2021/03/22 08:38:12;;;;;;;0.40;0.40;;;7.10;99.90;;;;;;4405406;32;20105;-73
2021/03/22 08:40:45;;;;;;;2.62;1.37;;;7.10;99.90;;;;;;4405276;32;20073;-73
2021/03/22 08:43:51;;;;;;;0.65;0.65;;;7.00;99.90;;;;;;4399100;32;20089;-72
2021/03/22 08:46:28;;;;;;;1.75;1.20;;;7.10;99.90;;;;;;4389334;32;20093;-73
2021/03/22 08:48:55;;;;;;;0.80;0.55;;;7.40;99.90;;;;;;4402957;32;20122;-72
2021/03/22 08:51:27;;;;;;;0.93;0.93;;;7.60;99.90;;;;;;4405960;32;20077;-73
2021/03/22 08:53:55;;;;;;;0.43;0.43;;;7.70;99.90;;;;;;4404277;32;20077;-74
2021/03/22 08:56:40;;;;;;;4.60;0.82;;;7.70;99.90;;;;;;4402927;32;20471;-73
2021/03/22 08:59:09;;;;;;;0.45;0.37;;;7.90;99.90;;;;;;4406356;32;20102;-72
2021/03/22 09:01:38;;;;;;;0.30;0.30;;;8.10;99.90;;;;;;4405260;32;20215;-73
2021/03/22 09:04:11;;;;;;;3.55;1.70;;;8.30;99.90;;;;;;4403476;32;20073;-73
2021/03/22 09:06:57;;;;;;;1.23;0.90;;;8.30;99.90;;;;;;4408522;32;20085;-72
2021/03/22 09:09:29;;;;;;;4.87;0.82;;;8.40;99.90;;;;;;4406351;32;20066;-72
2021/03/22 09:11:55;;;;;;;3.85;0.95;;;8.50;99.90;;;;;;4404945;32;20073;-73
2021/03/22 09:14:34;;;;;;;0.70;0.70;;;8.40;99.90;;;;;;4412925;32;20078;-73
2021/03/22 09:17:01;;;;;;;5.68;0.95;;;8.30;99.90;;;;;;4410851;32;20113;-73
2021/03/22 09:19:39;;;;;;;0.40;0.40;;;8.30;99.90;;;;;;4406744;32;20101;-73
2021/03/22 09:22:09;;;;;;;0.50;0.50;;;8.40;99.90;;;;;;4401222;32;20178;-73
2021/03/22 09:24:40;;;;;;;0.62;0.60;;;8.50;99.90;;;;;;4405459;32;20105;-74
2021/03/22 09:27:16;;;;;;;0.60;0.60;;;8.50;99.90;;;;;;4415578;32;20554;-73
2021/03/22 09:29:45;;;;;;;0.32;0.32;;;8.60;99.90;;;;;;4418154;32;20567;-74
2021/03/22 09:32:29;;;;;;;0.57;0.57;;;8.80;99.90;;;;;;4421567;32;20081;-74
2021/03/22 09:34:59;;;;;;;0.30;0.30;;;8.90;99.90;;;;;;4420172;32;20081;-73
2021/03/22 09:37:47;;;;;;;0.73;0.57;;;8.90;99.90;;;;;;4422142;32;20081;-73
2021/03/22 09:40:23;;;;;;;2.65;0.40;;;9.20;99.90;;;;;;4418365;32;20175;-73
2021/03/22 09:43:19;;;;;;;2.47;0.57;;;9.30;99.90;;;;;;4418201;32;20806;-74
2021/03/22 09:45:55;;;;;;;0.95;0.47;;;9.40;99.90;;;;;;4409994;32;20077;-76
2021/03/22 09:48:25;;;;;;;3.92;0.75;;;9.30;99.00;;;;;;4421659;32;20514;-74
2021/03/22 09:51:08;;;;;;;6.50;1.85;;;9.30;99.20;;;;;;4418936;32;20570;-74
2021/03/22 09:53:51;;;;;;;0.93;0.60;;;9.50;99.40;;;;;;4422662;32;20061;-73
2021/03/22 09:56:35;;;;;;;9.90;1.90;;;9.60;99.10;;;;;;4421357;32;20097;-74
2021/03/22 09:59:24;;;;;;;0.40;0.40;;;9.80;97.10;;;;;;4416092;32;20066;-73
2021/03/22 10:01:52;;;;;;;0.40;0.40;;;10.00;95.30;;;;;;4410411;32;20085;-73
2021/03/22 10:04:27;;;;;;;0.57;0.57;;;10.40;91.60;;;;;;4421042;32;20061;-74
2021/03/22 10:07:00;;;;;;;0.20;0.20;;;10.20;89.10;;;;;;4403999;32;20525;-73
2021/03/22 10:09:41;;;;;;;0.47;0.47;;;10.30;89.80;;;;;;4418903;32;20074;-74
2021/03/22 10:12:28;;;;;;;0.30;0.30;;;10.50;83.10;;;;;;4415323;32;20081;-73
2021/03/22 10:15:14;;;;;;;0.20;0.20;;;10.60;81.90;;;;;;4411809;32;20100;-74
2021/03/22 10:18:11;;;;;;;1.08;0.80;;;10.60;78.90;;;;;;4421760;32;21257;-74
2021/03/22 10:20:43;;;;;;;0.30;0.30;;;10.90;79.50;;;;;;4411713;32;20495;-73
2021/03/22 10:23:33;;;;;;;4.90;1.37;;;11.00;74.90;;;;;;4422731;32;20540;-74
2021/03/22 10:26:13;;;;;;;0.30;0.30;;;11.00;76.60;;;;;;4413520;32;20395;-72
2021/03/22 10:28:41;;;;;;;0.40;0.40;;;11.00;74.40;;;;;;4422142;32;20153;-73
2021/03/22 10:31:16;;;;;;;0.37;0.37;;;11.10;76.40;;;;;;4419767;32;20057;-72
2021/03/22 10:33:57;;;;;;;0.30;0.30;;;11.00;74.30;;;;;;4415583;32;20058;-73
2021/03/22 10:36:29;;;;;;;0.30;0.30;;;11.20;73.50;;;;;;4419115;32;20053;-73
2021/03/22 10:38:56;;;;;;;0.50;0.50;;;11.10;74.30;;;;;;4417113;27;20098;-55
2021/03/22 10:41:28;;;;;;;0.30;0.30;;;11.20;73.10;;;;;;4388404;32;20065;-53
2021/03/22 10:43:57;;;;;;;0.73;0.73;;;11.50;72.80;;;;;;4397397;32;118165;-55
2021/03/22 10:46:25;;;;;;;0.22;0.22;;;11.60;73.80;;;;;;4394911;32;20062;-57
2021/03/22 10:49:20;;;;;;;0.30;0.30;;;12.00;71.00;;;;;;4381055;32;20502;-53
2021/03/22 10:51:51;;;;;;;0.40;0.40;;;11.90;70.70;;;;;;4369940;32;20905;-53
2021/03/22 10:54:20;;;;;;;0.57;0.50;;;11.70;70.50;;;;;;4392077;32;20065;-54
2021/03/22 10:56:53;;;;;;;0.30;0.30;;;11.80;69.90;;;;;;4395228;32;20071;-55
2021/03/22 10:59:30;;;;;;;0.50;0.50;;;12.00;69.70;;;;;;4386840;32;20066;-55
2021/03/22 11:01:59;;;;;;;3.50;0.82;;;12.00;69.60;;;;;;4372385;32;20450;-51
2021/03/22 11:04:32;;;;;;;0.40;0.40;;;12.20;69.10;;;;;;4373294;32;20166;-56
2021/03/22 11:06:59;;;;;;;0.30;0.30;;;12.30;65.70;;;;;;4393407;32;20067;-57
2021/03/22 11:09:28;;;;;;;0.30;0.30;;;12.30;61.50;;;;;;4379350;32;20189;-56
2021/03/22 11:11:56;;;;;;;0.30;0.30;;;12.40;60.90;;;;;;4376541;32;20070;-56
2021/03/22 11:14:26;;;;;;;0.52;0.52;;;12.60;65.40;;;;;;4376028;32;20082;-57
2021/03/22 11:16:52;;;;;;;0.30;0.30;;;12.90;65.90;;;;;;4371856;32;20455;-53
2021/03/22 11:19:26;;;;;;;1.98;0.95;;;12.90;61.60;;;;;;4374780;32;20171;-55
2021/03/22 11:21:54;;;;;;;0.30;0.30;;;12.90;64.10;;;;;;4387413;32;20169;-55
2021/03/22 11:24:35;;;;;;;0.40;0.40;;;13.10;62.50;;;;;;4374570;32;20444;-55
2021/03/22 11:27:05;;;;;;;0.30;0.30;;;13.10;62.00;;;;;;4383070;32;20070;-55
2021/03/22 11:29:31;;;;;;;0.32;0.32;;;13.10;62.60;;;;;;4370188;32;20103;-54
2021/03/22 11:32:01;;;;;;;0.40;0.40;;;13.70;61.50;;;;;;4395491;32;20515;-52
2021/03/22 11:34:33;;;;;;;0.30;0.30;;;14.10;59.90;;;;;;4380571;32;20074;-52
2021/03/22 11:37:03;;;;;;;0.25;0.25;;;14.50;57.40;;;;;;4374616;32;20136;-52
2021/03/22 11:39:33;;;;;;;0.40;0.40;;;14.40;60.10;;;;;;4390301;32;20081;-54
2021/03/22 11:42:01;;;;;;;2.08;1.00;;;14.40;61.30;;;;;;4390734;32;20042;-57
2021/03/22 11:44:34;;;;;;;1.00;0.30;;;14.40;57.00;;;;;;4387634;32;20163;-53
2021/03/22 11:47:39;;;;;;;0.30;0.30;;;13.80;56.10;;;;;;4402040;32;20380;-54
2021/03/22 11:50:27;;;;;;;0.60;0.60;;;13.50;58.40;;;;;;4396675;32;20099;-55
2021/03/22 11:53:04;;;;;;;0.40;0.40;;;13.90;56.00;;;;;;4379577;32;20054;-54
2021/03/22 11:55:33;;;;;;;0.30;0.30;;;14.30;56.80;;;;;;4395660;32;20408;-52
2021/03/22 11:57:58;;;;;;;19.05;0.85;;;14.60;54.50;;;;;;4398752;32;20563;-52
2021/03/22 12:00:28;;;;;;;0.45;0.45;;;14.90;53.70;;;;;;4398959;32;20073;-55
2021/03/22 12:02:58;;;;;;;0.52;0.50;;;14.50;53.40;;;;;;4390182;32;20078;-55
2021/03/22 12:05:42;;;;;;;0.40;0.40;;;14.10;55.70;;;;;;4392471;32;20062;-53
2021/03/22 12:08:33;;;;;;;2.37;0.40;;;14.70;56.70;;;;;;4408603;32;20062;-53
2021/03/22 12:10:59;;;;;;;2.20;0.90;;;15.20;54.30;;;;;;4383277;32;20353;-54
2021/03/22 12:13:25;;;;;;;0.30;0.30;;;15.20;52.80;;;;;;4390213;32;20454;-56
2021/03/22 12:15:51;;;;;;;0.30;0.30;;;15.60;54.40;;;;;;4392179;32;20057;-57
2021/03/22 12:18:24;;;;;;;1.77;0.93;;;16.00;55.70;;;;;;4387924;32;20081;-55
2021/03/22 12:20:49;;;;;;;0.30;0.30;;;16.20;54.50;;;;;;4391678;32;20114;-57
2021/03/22 12:23:15;;;;;;;0.80;0.40;;;16.00;54.00;;;;;;4390393;32;20951;-54
2021/03/22 12:25:40;;;;;;;0.40;0.40;;;15.80;53.80;;;;;;4404764;32;20275;-53
2021/03/22 12:28:06;;;;;;;0.52;0.52;;;15.20;53.60;;;;;;4408583;32;20066;-57
2021/03/22 12:30:33;;;;;;;0.30;0.30;;;15.10;56.90;;;;;;4393853;32;20089;-55
2021/03/22 12:32:59;;;;;;;0.30;0.30;;;15.10;53.80;;;;;;4390136;32;20535;-57
2021/03/22 12:35:31;;;;;;;0.45;0.40;;;15.30;54.60;;;;;;4405143;32;20053;-57
2021/03/22 12:37:57;;;;;;;0.30;0.30;;;15.70;54.10;;;;;;4390170;32;20471;-54
2021/03/22 12:40:23;;;;;;;0.30;0.30;;;16.00;52.70;;;;;;4398004;32;20141;-57
2021/03/22 12:42:49;;;;;;;0.32;0.32;;;16.10;53.20;;;;;;4402463;32;20539;-58
2021/03/22 12:45:22;;;;;;;0.57;0.57;;;16.00;53.00;;;;;;4403860;32;20085;-55
2021/03/22 12:47:48;;;;;;;0.30;0.30;;;16.80;52.00;;;;;;4391333;32;20248;-57
2021/03/22 12:50:20;;;;;;;0.30;0.30;;;17.40;49.10;;;;;;4380093;32;20489;-56
2021/03/22 12:52:47;;;;;;;0.70;0.70;;;17.20;52.00;;;;;;4377293;32;20086;-55
2021/03/22 12:55:13;;;;;;;0.30;0.30;;;17.20;52.00;;;;;;4404848;32;20057;-56
2021/03/22 12:57:39;;;;;;;0.30;0.30;;;17.20;49.60;;;;;;4386494;32;20525;-58
2021/03/22 13:00:05;;;;;;;0.30;0.30;;;16.70;50.50;;;;;;4406067;32;20086;-56
2021/03/22 13:02:32;;;;;;;0.30;0.30;;;15.90;50.50;;;;;;4402193;32;20081;-56
2021/03/22 13:04:58;;;;;;;0.28;0.28;;;15.40;50.10;;;;;;4402781;32;20070;-54
2021/03/22 13:07:23;;;;;;;0.55;0.50;;;15.50;50.80;;;;;;4407598;32;20120;-56
2021/03/22 13:09:49;;;;;;;0.20;0.20;;;15.60;50.20;;;;;;4406582;32;20118;-56
2021/03/22 13:12:25;;;;;;;0.30;0.30;;;15.70;51.20;;;;;;4394605;32;20125;-56
2021/03/22 13:14:53;;;;;;;0.35;0.35;;;16.00;51.70;;;;;;4394224;32;20132;-56
2021/03/22 13:17:23;;;;;;;0.47;0.47;;;15.60;51.00;;;;;;4392483;32;20070;-57
2021/03/22 13:19:48;;;;;;;0.40;0.40;;;15.20;51.80;;;;;;4398013;32;20070;-56
2021/03/22 13:22:20;;;;;;;0.30;0.30;;;14.70;51.70;;;;;;4409085;32;20500;-56
2021/03/22 13:24:46;;;;;;;0.80;0.40;;;14.20;53.00;;;;;;4367992;32;20069;-57
2021/03/22 13:27:15;;;;;;;0.52;0.52;;;14.20;53.50;;;;;;4403373;32;20458;-57